Time;durP1;ratioP1;P1;durP2;ratioP2;P2;SDS_P1;SDS_P2;PMS_P1;PMS_P2;Temp;Humidity;BMP_temperature;BMP_pressure;BME280_temperature;BME280_humidity;BME280_pressure;Samples;Min_cycle;Max_cycle;Signal;HPM_P1;HPM_P2
2022/05/05 00:00:37;;;;;;;2.02;1.17;;;;;;;;;;349668;152;857336;-55
2022/05/05 00:01:40;;;;;;;2.04;1.09;;;;;;;;;;354220;151;857871;-55
2022/05/05 00:02:41;;;;;;;3.55;1.20;;;;;;;;;;349943;152;857367;-56
2022/05/05 00:03:43;;;;;;;2.19;1.27;;;;;;;;;;354195;152;866493;-55
2022/05/05 00:04:44;;;;;;;4.92;1.31;;;;;;;;;;350562;151;859321;-55
2022/05/05 00:05:46;;;;;;;3.75;1.20;;;;;;;;;;354257;151;860136;-55
2022/05/05 00:06:48;;;;;;;3.81;1.34;;;;;;;;;;354297;151;860233;-54
2022/05/05 00:07:50;;;;;;;6.81;1.26;;;;;;;;;;354178;152;865837;-55
2022/05/05 00:08:51;;;;;;;2.18;1.23;;;;;;;;;;353781;152;858686;-55
2022/05/05 00:09:53;;;;;;;2.19;1.09;;;;;;;;;;352952;152;858685;-55
2022/05/05 00:14:55;;;;;;;2.37;1.10;;;;;;;;;;349631;152;859860;-55
2022/05/05 00:15:56;;;;;;;3.02;1.40;;;;;;;;;;348808;152;858068;-55
2022/05/05 00:17:02;;;;;;;1.24;0.85;;;;;;;;;;349664;152;857261;-56
2022/05/05 00:18:04;;;;;;;1.91;0.97;;;;;;;;;;349107;152;866258;-55
2022/05/05 00:19:05;;;;;;;1.83;0.97;;;;;;;;;;352793;152;859533;-55
2022/05/05 00:20:07;;;;;;;2.58;0.94;;;;;;;;;;352941;152;865076;-55
2022/05/05 00:21:09;;;;;;;3.73;1.03;;;;;;;;;;352954;152;864548;-55
2022/05/05 00:22:11;;;;;;;4.21;1.14;;;;;;;;;;352864;152;857857;-55
2022/05/05 00:23:12;;;;;;;1.64;0.96;;;;;;;;;;352962;152;857405;-55
2022/05/05 00:24:16;;;;;;;2.64;1.04;;;;;;;;;;352855;152;857364;-55
2022/05/05 00:25:18;;;;;;;4.26;1.85;;;;;;;;;;352758;152;857327;-56
2022/05/05 00:26:19;;;;;;;3.46;1.55;;;;;;;;;;352843;152;860403;-55
2022/05/05 00:27:22;;;;;;;1.98;1.02;;;;;;;;;;352831;152;858113;-55
2022/05/05 00:28:24;;;;;;;3.17;1.62;;;;;;;;;;352886;152;857615;-55
2022/05/05 00:29:25;;;;;;;2.32;0.88;;;;;;;;;;352940;152;856805;-55
2022/05/05 00:30:27;;;;;;;2.53;1.07;;;;;;;;;;353030;152;857444;-55
2022/05/05 00:31:28;;;;;;;2.01;0.94;;;;;;;;;;353008;152;857255;-55
2022/05/05 00:32:30;;;;;;;1.60;0.96;;;;;;;;;;352699;152;857332;-55
2022/05/05 00:33:32;;;;;;;2.65;1.34;;;;;;;;;;352655;152;857221;-55
2022/05/05 00:34:33;;;;;;;3.37;1.17;;;;;;;;;;352988;152;857281;-55
2022/05/05 00:35:35;;;;;;;1.87;1.21;;;;;;;;;;352989;152;857652;-55
2022/05/05 00:36:37;;;;;;;3.24;1.29;;;;;;;;;;352964;152;864887;-54
2022/05/05 00:37:38;;;;;;;3.22;1.71;;;;;;;;;;354395;151;864939;-54
2022/05/05 00:38:40;;;;;;;3.61;1.31;;;;;;;;;;352975;152;864553;-54
2022/05/05 00:39:41;;;;;;;3.36;1.63;;;;;;;;;;352985;152;857188;-55
2022/05/05 00:40:43;;;;;;;4.36;1.14;;;;;;;;;;353105;152;857290;-55
2022/05/05 00:41:45;;;;;;;2.83;1.11;;;;;;;;;;352964;152;864678;-54
2022/05/05 00:42:46;;;;;;;2.73;1.26;;;;;;;;;;352778;152;857276;-55
2022/05/05 00:43:48;;;;;;;3.30;0.96;;;;;;;;;;352871;152;857419;-54
2022/05/05 00:44:49;;;;;;;0.61;0.58;;;;;;;;;;352964;152;856354;-54
2022/05/05 00:45:51;;;;;;;1.19;0.81;;;;;;;;;;352820;152;857492;-55
2022/05/05 00:46:52;;;;;;;2.62;1.06;;;;;;;;;;350274;152;857377;-54
2022/05/05 00:48:04;;;;;;;1.35;0.79;;;;;;;;;;348460;152;867604;-54
2022/05/05 00:49:06;;;;;;;2.77;0.93;;;;;;;;;;352812;152;857612;-54
2022/05/05 00:50:08;;;;;;;1.43;0.59;;;;;;;;;;353085;152;858044;-54
2022/05/05 00:51:10;;;;;;;2.09;0.77;;;;;;;;;;352982;152;858778;-54
2022/05/05 00:52:11;;;;;;;1.59;0.75;;;;;;;;;;353001;152;858716;-54
2022/05/05 00:53:13;;;;;;;3.32;1.14;;;;;;;;;;352974;152;865007;-54
2022/05/05 00:54:14;;;;;;;2.16;1.26;;;;;;;;;;352933;152;857340;-56
2022/05/05 00:55:16;;;;;;;2.35;1.12;;;;;;;;;;353042;152;857337;-57
2022/05/05 00:56:17;;;;;;;2.17;0.92;;;;;;;;;;353078;152;857613;-55
2022/05/05 00:57:19;;;;;;;2.29;1.10;;;;;;;;;;352921;152;865223;-53
2022/05/05 00:58:20;;;;;;;2.40;1.29;;;;;;;;;;352908;152;865814;-55
2022/05/05 00:59:22;;;;;;;3.36;1.18;;;;;;;;;;343929;155;859828;-54
2022/05/05 01:00:24;;;;;;;3.47;1.26;;;;;;;;;;345504;152;859136;-55
2022/05/05 01:01:26;;;;;;;1.85;1.13;;;;;;;;;;353018;152;859623;-55
2022/05/05 01:02:28;;;;;;;2.05;1.18;;;;;;;;;;352846;152;859758;-55
2022/05/05 01:03:31;;;;;;;1.91;0.98;;;;;;;;;;352930;152;858263;-55
2022/05/05 01:04:32;;;;;;;1.78;1.03;;;;;;;;;;352669;152;860276;-55
2022/05/05 01:05:34;;;;;;;1.44;0.95;;;;;;;;;;352940;152;857725;-54
2022/05/05 01:06:36;;;;;;;4.45;1.36;;;;;;;;;;352844;152;858009;-55
2022/05/05 01:07:38;;;;;;;4.42;1.40;;;;;;;;;;352944;152;865283;-55
2022/05/05 01:08:40;;;;;;;3.02;1.19;;;;;;;;;;352923;152;859451;-55
2022/05/05 01:09:41;;;;;;;4.36;1.46;;;;;;;;;;352838;152;857217;-55
2022/05/05 01:10:43;;;;;;;5.18;1.12;;;;;;;;;;352557;152;866121;-57
2022/05/05 01:11:45;;;;;;;2.93;1.14;;;;;;;;;;347589;152;867295;-56
2022/05/05 01:12:47;;;;;;;3.09;1.28;;;;;;;;;;352990;152;859216;-55
2022/05/05 01:13:48;;;;;;;1.23;0.84;;;;;;;;;;353029;152;860179;-55
2022/05/05 01:14:50;;;;;;;1.10;0.71;;;;;;;;;;353010;152;857696;-57
2022/05/05 01:15:51;;;;;;;1.51;0.81;;;;;;;;;;352981;152;857727;-56
2022/05/05 01:16:53;;;;;;;0.97;0.70;;;;;;;;;;353037;152;857433;-55
2022/05/05 01:17:54;;;;;;;1.91;1.05;;;;;;;;;;352926;152;864035;-55
2022/05/05 01:18:56;;;;;;;1.20;0.94;;;;;;;;;;353010;152;857834;-54
2022/05/05 01:19:57;;;;;;;1.04;0.69;;;;;;;;;;353130;152;857192;-54
2022/05/05 01:20:59;;;;;;;1.10;0.56;;;;;;;;;;352970;152;857322;-54
2022/05/05 01:22:03;;;;;;;3.24;1.19;;;;;;;;;;352850;152;865220;-54
2022/05/05 01:23:04;;;;;;;3.06;1.24;;;;;;;;;;352934;152;857487;-54
2022/05/05 01:24:06;;;;;;;1.75;1.22;;;;;;;;;;352804;152;858038;-55
2022/05/05 01:29:08;;;;;;;4.84;1.69;;;;;;;;;;352323;152;857843;-57
2022/05/05 01:30:11;;;;;;;3.54;1.71;;;;;;;;;;352795;152;858228;-55
2022/05/05 01:31:12;;;;;;;3.32;1.27;;;;;;;;;;352884;152;858131;-54
2022/05/05 01:32:15;;;;;;;5.35;1.64;;;;;;;;;;349356;152;858115;-54
2022/05/05 01:33:17;;;;;;;1.59;1.06;;;;;;;;;;352501;152;860140;-54
2022/05/05 01:34:19;;;;;;;2.24;1.09;;;;;;;;;;352931;152;858482;-54
2022/05/05 01:35:21;;;;;;;2.79;1.22;;;;;;;;;;352823;152;857428;-54
2022/05/05 01:36:22;;;;;;;2.15;1.22;;;;;;;;;;352966;152;865203;-54
2022/05/05 01:37:24;;;;;;;4.48;1.44;;;;;;;;;;352258;152;859060;-54
2022/05/05 01:38:28;;;;;;;1.81;1.25;;;;;;;;;;352501;152;864894;-54
2022/05/05 01:39:30;;;;;;;1.70;1.26;;;;;;;;;;352940;152;858435;-54
2022/05/05 01:40:31;;;;;;;2.94;1.54;;;;;;;;;;352990;152;857720;-54
2022/05/05 01:41:36;;;;;;;1.51;0.76;;;;;;;;;;353061;152;865065;-55
2022/05/05 01:42:38;;;;;;;3.04;1.14;;;;;;;;;;352806;152;859564;-54
2022/05/05 01:43:41;;;;;;;0.53;0.47;;;;;;;;;;352939;152;857316;-54
2022/05/05 01:44:43;;;;;;;2.42;0.82;;;;;;;;;;352048;152;857974;-54
2022/05/05 01:45:45;;;;;;;0.64;0.64;;;;;;;;;;352964;152;859011;-54
2022/05/05 01:46:46;;;;;;;1.64;0.65;;;;;;;;;;350886;152;864929;-54
2022/05/05 01:47:48;;;;;;;0.55;0.55;;;;;;;;;;347848;152;865234;-54
2022/05/05 01:48:49;;;;;;;1.07;0.96;;;;;;;;;;348427;152;865328;-55
2022/05/05 01:49:51;;;;;;;1.36;0.68;;;;;;;;;;352933;152;857785;-54
2022/05/05 01:50:52;;;;;;;1.47;0.69;;;;;;;;;;353069;152;857465;-54
2022/05/05 01:51:55;;;;;;;2.64;1.28;;;;;;;;;;352988;152;857448;-57
2022/05/05 01:52:56;;;;;;;3.50;1.51;;;;;;;;;;352867;152;865401;-55
2022/05/05 01:53:58;;;;;;;2.16;1.36;;;;;;;;;;352766;152;857367;-54
2022/05/05 01:55:00;;;;;;;3.50;1.40;;;;;;;;;;353060;152;857171;-54
2022/05/05 01:56:02;;;;;;;4.75;1.34;;;;;;;;;;353037;152;857131;-54
2022/05/05 01:57:04;;;;;;;2.33;1.51;;;;;;;;;;352939;152;859846;-55
2022/05/05 01:58:06;;;;;;;3.01;1.29;;;;;;;;;;353021;152;859461;-55
2022/05/05 01:59:08;;;;;;;4.56;1.41;;;;;;;;;;352489;152;865160;-55
2022/05/05 02:00:10;;;;;;;1.97;1.29;;;;;;;;;;352362;152;857785;-55
2022/05/05 02:01:12;;;;;;;3.53;1.53;;;;;;;;;;353032;152;857888;-56
2022/05/05 02:02:13;;;;;;;2.15;1.30;;;;;;;;;;352897;152;857971;-55
2022/05/05 02:03:15;;;;;;;4.26;1.39;;;;;;;;;;352893;152;858004;-55
2022/05/05 02:04:16;;;;;;;2.16;1.20;;;;;;;;;;349968;152;857920;-56
2022/05/05 02:05:18;;;;;;;2.34;1.25;;;;;;;;;;346708;155;859896;-57
2022/05/05 02:06:20;;;;;;;1.51;1.21;;;;;;;;;;351174;152;857951;-55
2022/05/05 02:07:21;;;;;;;5.88;1.63;;;;;;;;;;352805;152;864094;-54
2022/05/05 02:08:23;;;;;;;8.40;1.22;;;;;;;;;;352801;152;866824;-55
2022/05/05 02:09:24;;;;;;;3.67;1.27;;;;;;;;;;353003;152;856417;-54
2022/05/05 02:10:26;;;;;;;3.09;1.73;;;;;;;;;;352913;152;857606;-55
2022/05/05 02:11:27;;;;;;;0.76;0.76;;;;;;;;;;352857;152;865822;-54
2022/05/05 02:12:30;;;;;;;1.31;0.87;;;;;;;;;;352950;152;865586;-55
2022/05/05 02:13:32;;;;;;;1.19;0.85;;;;;;;;;;352986;152;858601;-55
2022/05/05 02:14:34;;;;;;;2.01;0.99;;;;;;;;;;353054;152;858799;-55
2022/05/05 02:15:35;;;;;;;2.04;0.89;;;;;;;;;;353052;152;858583;-54
2022/05/05 02:16:37;;;;;;;9.49;0.92;;;;;;;;;;352974;152;857454;-55
2022/05/05 02:17:39;;;;;;;1.06;0.76;;;;;;;;;;352997;152;857599;-54
2022/05/05 02:18:41;;;;;;;0.67;0.50;;;;;;;;;;352960;152;857196;-57
2022/05/05 02:19:42;;;;;;;1.08;0.71;;;;;;;;;;346758;155;857573;-54
2022/05/05 02:20:44;;;;;;;1.36;0.69;;;;;;;;;;346678;152;864966;-55
2022/05/05 02:21:45;;;;;;;2.29;1.11;;;;;;;;;;352863;152;865083;-56
2022/05/05 02:22:47;;;;;;;3.62;1.54;;;;;;;;;;352966;152;867256;-55
2022/05/05 02:23:49;;;;;;;3.71;1.43;;;;;;;;;;352908;152;864597;-55
2022/05/05 02:24:50;;;;;;;3.28;1.72;;;;;;;;;;352889;152;864718;-54
2022/05/05 02:25:53;;;;;;;3.13;1.47;;;;;;;;;;351669;152;857496;-55
2022/05/05 02:26:54;;;;;;;3.45;1.71;;;;;;;;;;351785;153;859155;-55
2022/05/05 02:27:56;;;;;;;9.84;2.49;;;;;;;;;;352002;152;864874;-55
2022/05/05 02:28:57;;;;;;;5.25;2.65;;;;;;;;;;352962;152;859043;-55
2022/05/05 02:29:59;;;;;;;7.09;3.01;;;;;;;;;;352964;152;858992;-55
2022/05/05 02:31:00;;;;;;;5.68;2.65;;;;;;;;;;352909;152;859459;-54
2022/05/05 02:32:02;;;;;;;7.69;3.63;;;;;;;;;;352989;152;866227;-54
2022/05/05 02:33:04;;;;;;;6.88;2.66;;;;;;;;;;352256;152;858606;-55
2022/05/05 02:34:08;;;;;;;7.73;3.19;;;;;;;;;;352429;152;859104;-57
2022/05/05 02:35:09;;;;;;;8.87;3.48;;;;;;;;;;352869;152;865022;-54
2022/05/05 02:38:52;;;;;;;7.84;3.63;;;;;;;;;;352726;152;864997;-56
2022/05/05 02:39:53;;;;;;;8.05;3.70;;;;;;;;;;352757;152;857818;-54
2022/05/05 02:40:55;;;;;;;3.19;2.08;;;;;;;;;;351470;152;857905;-55
2022/05/05 02:41:57;;;;;;;9.40;2.24;;;;;;;;;;351576;152;857949;-54
2022/05/05 02:42:58;;;;;;;7.60;3.07;;;;;;;;;;352945;152;858445;-55
2022/05/05 02:44:00;;;;;;;4.26;2.35;;;;;;;;;;352824;152;857347;-55
2022/05/05 02:45:01;;;;;;;6.08;2.94;;;;;;;;;;344829;152;864814;-55
2022/05/05 02:46:03;;;;;;;6.86;2.95;;;;;;;;;;348205;152;857467;-55
2022/05/05 02:47:05;;;;;;;2.68;2.03;;;;;;;;;;352905;152;857331;-54
2022/05/05 02:48:07;;;;;;;4.40;2.23;;;;;;;;;;352818;152;857304;-54
2022/05/05 02:49:12;;;;;;;5.54;1.79;;;;;;;;;;352945;152;860646;-55
2022/05/05 02:50:14;;;;;;;3.49;2.03;;;;;;;;;;352710;152;857945;-54
2022/05/05 02:51:17;;;;;;;10.46;3.94;;;;;;;;;;352842;152;857736;-57
2022/05/05 02:52:18;;;;;;;10.79;3.72;;;;;;;;;;352961;152;857658;-56
2022/05/05 02:54:53;;;;;;;5.71;3.28;;;;;;;;;;352399;152;858156;-55
2022/05/05 02:55:54;;;;;;;8.71;3.74;;;;;;;;;;352748;152;864898;-55
2022/05/05 02:56:56;;;;;;;9.60;3.83;;;;;;;;;;352948;152;859549;-57
2022/05/05 02:57:57;;;;;;;7.70;3.41;;;;;;;;;;353111;152;857330;-55
2022/05/05 02:58:59;;;;;;;8.01;3.33;;;;;;;;;;353215;151;857223;-55
2022/05/05 03:00:01;;;;;;;9.23;3.55;;;;;;;;;;354504;151;866697;-55
2022/05/05 03:01:02;;;;;;;8.17;3.61;;;;;;;;;;353047;152;866528;-55
2022/05/05 03:02:04;;;;;;;10.24;3.55;;;;;;;;;;352744;152;866958;-55
2022/05/05 03:03:06;;;;;;;9.04;3.66;;;;;;;;;;352641;152;866736;-56
2022/05/05 03:04:07;;;;;;;7.14;3.60;;;;;;;;;;350781;151;862818;-55
2022/05/05 03:05:09;;;;;;;7.79;4.25;;;;;;;;;;346694;155;866543;-55
2022/05/05 03:06:12;;;;;;;9.36;3.74;;;;;;;;;;346652;155;858234;-55
2022/05/05 03:07:13;;;;;;;8.44;3.45;;;;;;;;;;346777;155;859858;-55
2022/05/05 03:08:15;;;;;;;8.61;3.61;;;;;;;;;;346773;155;857522;-55
2022/05/05 03:09:16;;;;;;;11.54;3.84;;;;;;;;;;346539;155;864875;-56
2022/05/05 03:10:18;;;;;;;8.46;3.61;;;;;;;;;;346640;155;864900;-55
2022/05/05 03:11:20;;;;;;;4.47;2.38;;;;;;;;;;346727;155;867081;-55
2022/05/05 03:12:22;;;;;;;5.18;2.36;;;;;;;;;;346835;155;857437;-55
2022/05/05 03:13:23;;;;;;;4.72;2.27;;;;;;;;;;346871;155;858351;-54
2022/05/05 03:14:24;;;;;;;7.67;3.16;;;;;;;;;;346849;155;858982;-55
2022/05/05 03:15:26;;;;;;;5.16;2.12;;;;;;;;;;346879;155;856587;-54
2022/05/05 03:16:28;;;;;;;3.53;1.56;;;;;;;;;;347246;151;857357;-55
2022/05/05 03:17:29;;;;;;;6.61;2.43;;;;;;;;;;355621;151;857717;-54
2022/05/05 03:18:31;;;;;;;4.21;1.94;;;;;;;;;;355618;151;857238;-54
2022/05/05 03:19:32;;;;;;;3.42;1.89;;;;;;;;;;355560;151;865006;-54
2022/05/05 03:20:34;;;;;;;6.02;3.46;;;;;;;;;;355654;151;859107;-55
2022/05/05 03:21:36;;;;;;;8.24;3.34;;;;;;;;;;355568;151;865724;-55
2022/05/05 03:22:38;;;;;;;8.01;3.51;;;;;;;;;;352204;151;866540;-55
2022/05/05 03:23:39;;;;;;;8.83;3.79;;;;;;;;;;346735;155;857396;-57
2022/05/05 03:24:41;;;;;;;8.09;3.09;;;;;;;;;;346640;155;859350;-56
2022/05/05 03:25:42;;;;;;;8.01;3.59;;;;;;;;;;349316;153;857221;-55
2022/05/05 03:26:44;;;;;;;7.00;3.40;;;;;;;;;;351677;153;858425;-55
2022/05/05 03:27:46;;;;;;;13.01;3.51;;;;;;;;;;351561;153;864922;-55
2022/05/05 03:28:47;;;;;;;7.55;3.56;;;;;;;;;;351713;153;865175;-55
2022/05/05 03:29:48;;;;;;;6.72;3.62;;;;;;;;;;351724;153;857530;-55
2022/05/05 03:30:50;;;;;;;5.67;3.14;;;;;;;;;;351646;153;857375;-54
2022/05/05 03:31:52;;;;;;;6.25;3.07;;;;;;;;;;351501;153;867132;-55
2022/05/05 03:32:53;;;;;;;6.81;3.48;;;;;;;;;;351558;153;866651;-54
2022/05/05 03:33:55;;;;;;;6.75;3.39;;;;;;;;;;351558;153;863944;-55
2022/05/05 03:34:56;;;;;;;6.46;3.64;;;;;;;;;;351566;153;859500;-55
2022/05/05 03:35:58;;;;;;;6.68;3.30;;;;;;;;;;351763;153;866033;-55
2022/05/05 03:37:00;;;;;;;6.31;3.20;;;;;;;;;;351617;153;865555;-55
2022/05/05 03:38:01;;;;;;;6.61;2.84;;;;;;;;;;352813;152;857645;-54
2022/05/05 03:39:03;;;;;;;9.43;3.39;;;;;;;;;;352790;152;866168;-54
2022/05/05 03:40:05;;;;;;;8.16;3.15;;;;;;;;;;348397;152;858198;-55
2022/05/05 03:41:07;;;;;;;2.15;1.45;;;;;;;;;;351603;152;864881;-55
2022/05/05 03:42:09;;;;;;;6.56;2.26;;;;;;;;;;352770;152;857988;-54
2022/05/05 03:43:11;;;;;;;6.35;2.25;;;;;;;;;;352678;152;857550;-55
2022/05/05 03:44:12;;;;;;;3.96;1.91;;;;;;;;;;352804;152;857401;-54
2022/05/05 03:45:14;;;;;;;6.39;2.19;;;;;;;;;;352916;152;864772;-55
2022/05/05 03:46:16;;;;;;;6.36;2.32;;;;;;;;;;352931;152;857283;-55
2022/05/05 03:47:17;;;;;;;4.69;2.88;;;;;;;;;;352904;152;857500;-55
2022/05/05 03:48:19;;;;;;;6.00;2.32;;;;;;;;;;352865;152;859148;-55
2022/05/05 03:49:21;;;;;;;4.37;2.37;;;;;;;;;;352784;152;858605;-55
2022/05/05 03:50:23;;;;;;;7.25;2.95;;;;;;;;;;352785;152;866525;-55
2022/05/05 03:51:24;;;;;;;6.31;3.18;;;;;;;;;;352966;152;857645;-55
2022/05/05 03:52:26;;;;;;;6.06;3.17;;;;;;;;;;352842;152;864958;-55
2022/05/05 03:53:27;;;;;;;8.61;2.89;;;;;;;;;;352834;152;865432;-55
2022/05/05 03:54:29;;;;;;;8.47;2.89;;;;;;;;;;352587;152;857409;-55
2022/05/05 03:55:31;;;;;;;6.58;2.75;;;;;;;;;;352857;152;858798;-55
2022/05/05 03:56:32;;;;;;;6.04;3.39;;;;;;;;;;352820;152;860153;-54
2022/05/05 03:57:34;;;;;;;6.47;2.94;;;;;;;;;;352885;152;865032;-55
2022/05/05 03:58:35;;;;;;;6.29;3.24;;;;;;;;;;352885;152;858911;-55
2022/05/05 03:59:37;;;;;;;6.27;2.71;;;;;;;;;;354139;151;859116;-55
2022/05/05 04:00:38;;;;;;;9.71;3.08;;;;;;;;;;352990;152;860231;-55
2022/05/05 04:01:40;;;;;;;10.31;2.68;;;;;;;;;;352867;152;867116;-55
2022/05/05 04:02:42;;;;;;;7.42;2.96;;;;;;;;;;352943;152;866421;-55
2022/05/05 04:03:43;;;;;;;7.04;2.86;;;;;;;;;;352967;152;859122;-55
2022/05/05 04:04:45;;;;;;;5.06;2.53;;;;;;;;;;352995;152;859044;-55
2022/05/05 04:05:48;;;;;;;7.44;2.55;;;;;;;;;;352932;152;866150;-55
2022/05/05 04:06:50;;;;;;;6.45;2.62;;;;;;;;;;352991;152;859184;-54
2022/05/05 04:07:51;;;;;;;6.91;2.51;;;;;;;;;;353067;152;856072;-55
2022/05/05 04:08:53;;;;;;;5.29;2.36;;;;;;;;;;353133;152;860001;-53
2022/05/05 04:09:54;;;;;;;4.76;2.19;;;;;;;;;;352943;152;865767;-54
2022/05/05 04:10:56;;;;;;;4.81;2.03;;;;;;;;;;353402;152;859053;-56
2022/05/05 04:11:58;;;;;;;3.27;1.78;;;;;;;;;;354272;152;864833;-53
2022/05/05 04:12:59;;;;;;;5.33;1.86;;;;;;;;;;354391;151;857243;-55
2022/05/05 04:14:01;;;;;;;3.11;1.81;;;;;;;;;;354378;151;857337;-55
2022/05/05 04:15:02;;;;;;;7.96;1.84;;;;;;;;;;354424;151;857288;-55
2022/05/05 04:16:04;;;;;;;3.99;1.51;;;;;;;;;;354303;152;864878;-55
2022/05/05 04:17:05;;;;;;;3.53;1.96;;;;;;;;;;354399;151;857652;-53
2022/05/05 04:18:07;;;;;;;5.30;2.09;;;;;;;;;;354369;152;859390;-55
2022/05/05 04:19:10;;;;;;;2.86;1.88;;;;;;;;;;352698;152;860176;-54
2022/05/05 04:20:12;;;;;;;5.79;1.87;;;;;;;;;;354304;152;858966;-54
2022/05/05 04:21:13;;;;;;;4.39;1.80;;;;;;;;;;354398;152;859130;-54
2022/05/05 04:22:15;;;;;;;3.63;1.91;;;;;;;;;;354304;151;866588;-54
2022/05/05 04:23:16;;;;;;;3.11;1.82;;;;;;;;;;354293;151;857500;-56
2022/05/05 04:24:18;;;;;;;4.29;2.29;;;;;;;;;;354340;152;865440;-56
2022/05/05 04:25:20;;;;;;;4.31;2.21;;;;;;;;;;353540;152;866728;-56
2022/05/05 04:26:21;;;;;;;2.86;1.62;;;;;;;;;;351801;152;865868;-56
2022/05/05 04:27:23;;;;;;;3.19;1.78;;;;;;;;;;354349;151;866109;-55
2022/05/05 04:28:24;;;;;;;4.16;2.01;;;;;;;;;;354398;151;856385;-55
2022/05/05 04:29:26;;;;;;;8.35;1.84;;;;;;;;;;354299;151;866827;-55
2022/05/05 04:30:28;;;;;;;2.24;1.65;;;;;;;;;;354329;151;865881;-55
2022/05/05 04:31:29;;;;;;;4.23;1.78;;;;;;;;;;354407;152;859411;-55
2022/05/05 04:32:31;;;;;;;4.82;1.80;;;;;;;;;;354328;152;859207;-55
2022/05/05 04:33:32;;;;;;;2.95;1.84;;;;;;;;;;354447;152;865627;-54
2022/05/05 04:34:34;;;;;;;5.33;1.86;;;;;;;;;;354410;151;858279;-54
2022/05/05 04:35:36;;;;;;;2.72;1.81;;;;;;;;;;354366;151;858162;-55
2022/05/05 04:36:37;;;;;;;3.26;1.72;;;;;;;;;;353932;152;857624;-54
2022/05/05 04:37:39;;;;;;;3.20;1.71;;;;;;;;;;348374;152;864675;-54
2022/05/05 04:38:40;;;;;;;2.61;1.70;;;;;;;;;;353711;152;866447;-55
2022/05/05 04:39:42;;;;;;;3.81;1.64;;;;;;;;;;354370;152;864939;-55
2022/05/05 04:40:44;;;;;;;3.47;1.25;;;;;;;;;;354369;152;865293;-55
2022/05/05 04:41:46;;;;;;;1.68;1.21;;;;;;;;;;354303;151;859046;-54
2022/05/05 04:42:47;;;;;;;2.16;1.24;;;;;;;;;;354334;152;858340;-54
2022/05/05 04:43:49;;;;;;;2.29;1.34;;;;;;;;;;354270;152;857870;-54
2022/05/05 04:44:50;;;;;;;3.79;1.59;;;;;;;;;;354163;152;859977;-54
2022/05/05 04:45:52;;;;;;;3.59;1.69;;;;;;;;;;354250;152;857440;-55
2022/05/05 04:46:54;;;;;;;3.45;1.61;;;;;;;;;;354339;151;857857;-55
2022/05/05 04:47:55;;;;;;;2.71;1.65;;;;;;;;;;354243;151;856906;-55
2022/05/05 04:48:57;;;;;;;5.51;1.64;;;;;;;;;;354234;151;857653;-54
2022/05/05 04:49:58;;;;;;;6.49;1.58;;;;;;;;;;354225;152;857337;-55
2022/05/05 04:51:00;;;;;;;5.24;1.96;;;;;;;;;;354216;151;857224;-55
2022/05/05 04:52:02;;;;;;;3.46;1.71;;;;;;;;;;354106;152;865378;-55
2022/05/05 04:53:03;;;;;;;4.03;1.55;;;;;;;;;;354327;152;857371;-55
2022/05/05 04:54:05;;;;;;;5.16;1.86;;;;;;;;;;354140;152;866356;-54
2022/05/05 04:55:07;;;;;;;2.96;1.47;;;;;;;;;;352635;152;857904;-55
2022/05/05 04:56:10;;;;;;;4.96;1.89;;;;;;;;;;351228;152;866720;-55
2022/05/05 04:57:11;;;;;;;2.78;1.48;;;;;;;;;;347980;154;858210;-55
2022/05/05 04:58:13;;;;;;;5.49;1.62;;;;;;;;;;354263;152;865448;-55
2022/05/05 04:59:14;;;;;;;2.86;1.51;;;;;;;;;;355730;150;857382;-55
2022/05/05 05:00:17;;;;;;;4.34;1.64;;;;;;;;;;355741;150;857439;-57
2022/05/05 05:01:18;;;;;;;6.77;2.03;;;;;;;;;;354268;152;858009;-55
2022/05/05 05:02:20;;;;;;;2.24;1.30;;;;;;;;;;354261;152;857929;-55
2022/05/05 05:03:39;;;;;;;2.31;1.51;;;;;;;;;;354187;152;865096;-54
2022/05/05 05:04:40;;;;;;;3.89;1.62;;;;;;;;;;348444;152;865853;-55
2022/05/05 05:05:42;;;;;;;6.47;1.77;;;;;;;;;;348457;152;857712;-55
2022/05/05 05:06:44;;;;;;;4.80;1.29;;;;;;;;;;354308;152;860151;-55
2022/05/05 05:07:46;;;;;;;6.29;2.21;;;;;;;;;;354275;151;857431;-55
2022/05/05 05:08:47;;;;;;;3.24;1.39;;;;;;;;;;354303;151;858875;-55
2022/05/05 05:09:49;;;;;;;1.90;1.32;;;;;;;;;;354202;151;857423;-55
2022/05/05 05:10:50;;;;;;;3.62;1.36;;;;;;;;;;354265;152;857395;-55
2022/05/05 05:11:52;;;;;;;3.36;1.39;;;;;;;;;;353248;152;865131;-55
2022/05/05 05:12:53;;;;;;;2.94;1.11;;;;;;;;;;352897;152;857884;-55
2022/05/05 05:13:55;;;;;;;6.17;1.41;;;;;;;;;;353030;152;857274;-55
2022/05/05 05:14:56;;;;;;;3.21;1.09;;;;;;;;;;350922;152;856488;-55
2022/05/05 05:15:58;;;;;;;3.87;1.29;;;;;;;;;;352046;152;857291;-55
2022/05/05 05:16:59;;;;;;;2.51;1.31;;;;;;;;;;352996;152;857752;-55
2022/05/05 05:18:01;;;;;;;3.01;1.06;;;;;;;;;;352940;152;866679;-55
2022/05/05 05:19:03;;;;;;;2.72;1.27;;;;;;;;;;353064;152;859054;-55
2022/05/05 05:20:06;;;;;;;6.59;1.33;;;;;;;;;;353000;152;859078;-55
2022/05/05 05:21:07;;;;;;;2.77;1.31;;;;;;;;;;352918;152;857791;-55
2022/05/05 05:22:09;;;;;;;2.24;1.20;;;;;;;;;;352821;152;865538;-55
2022/05/05 05:23:11;;;;;;;2.61;1.30;;;;;;;;;;352863;152;864959;-55
2022/05/05 05:24:13;;;;;;;2.99;1.44;;;;;;;;;;352866;152;857363;-55
2022/05/05 05:25:15;;;;;;;6.15;1.50;;;;;;;;;;352309;152;864978;-55
2022/05/05 05:26:18;;;;;;;3.46;1.11;;;;;;;;;;350869;152;857405;-55
2022/05/05 05:27:20;;;;;;;4.08;1.07;;;;;;;;;;352950;152;858841;-55
2022/05/05 05:28:21;;;;;;;4.29;1.56;;;;;;;;;;352866;152;857467;-55
2022/05/05 05:29:23;;;;;;;4.35;1.65;;;;;;;;;;352917;152;857592;-55
2022/05/05 05:30:24;;;;;;;4.32;1.19;;;;;;;;;;352922;152;856692;-55
2022/05/05 05:31:26;;;;;;;1.76;1.19;;;;;;;;;;352893;152;857447;-55
2022/05/05 05:32:28;;;;;;;2.34;1.26;;;;;;;;;;352799;152;865013;-55
2022/05/05 05:33:29;;;;;;;2.51;1.21;;;;;;;;;;350330;152;857289;-54
2022/05/05 05:34:31;;;;;;;3.08;1.28;;;;;;;;;;352819;152;857291;-55
2022/05/05 05:35:32;;;;;;;5.61;1.31;;;;;;;;;;352933;152;857178;-55
2022/05/05 05:36:34;;;;;;;4.41;1.64;;;;;;;;;;352911;152;857210;-55
2022/05/05 05:37:36;;;;;;;3.89;1.47;;;;;;;;;;354234;151;857576;-55
2022/05/05 05:38:37;;;;;;;4.13;1.41;;;;;;;;;;352926;152;857333;-55
2022/05/05 05:39:39;;;;;;;2.56;1.36;;;;;;;;;;351435;152;857663;-55
2022/05/05 05:40:41;;;;;;;5.05;1.37;;;;;;;;;;353013;152;864595;-56
2022/05/05 05:41:42;;;;;;;1.79;1.41;;;;;;;;;;352932;152;864753;-55
2022/05/05 05:42:44;;;;;;;3.31;1.19;;;;;;;;;;352955;152;865384;-55
2022/05/05 05:43:45;;;;;;;4.51;1.24;;;;;;;;;;352878;152;860094;-55
2022/05/05 05:44:47;;;;;;;2.81;1.32;;;;;;;;;;352938;152;867008;-55
2022/05/05 05:45:48;;;;;;;3.46;1.44;;;;;;;;;;353091;152;859288;-54
2022/05/05 05:46:50;;;;;;;3.25;1.51;;;;;;;;;;353104;152;859568;-54
2022/05/05 05:47:52;;;;;;;2.14;1.52;;;;;;;;;;352914;152;865935;-54
2022/05/05 05:48:53;;;;;;;6.20;1.52;;;;;;;;;;352985;152;866368;-54
2022/05/05 05:49:55;;;;;;;3.46;1.39;;;;;;;;;;352839;152;858850;-55
2022/05/05 05:50:57;;;;;;;3.54;1.31;;;;;;;;;;353028;152;858175;-54
2022/05/05 05:51:58;;;;;;;6.12;1.76;;;;;;;;;;352589;152;858869;-55
2022/05/05 05:53:00;;;;;;;4.34;1.34;;;;;;;;;;346825;155;857774;-54
2022/05/05 05:54:01;;;;;;;6.62;1.58;;;;;;;;;;349792;152;857276;-55
2022/05/05 05:55:04;;;;;;;2.74;1.59;;;;;;;;;;353060;152;857383;-55
2022/05/05 05:56:07;;;;;;;3.18;1.31;;;;;;;;;;352871;152;864937;-55
2022/05/05 05:57:08;;;;;;;6.05;1.64;;;;;;;;;;353001;152;865488;-56
2022/05/05 05:58:10;;;;;;;2.86;1.40;;;;;;;;;;353005;152;858694;-55
2022/05/05 05:59:11;;;;;;;2.80;1.49;;;;;;;;;;353761;151;858023;-55
2022/05/05 06:00:14;;;;;;;2.05;1.36;;;;;;;;;;355607;151;857801;-57
2022/05/05 06:01:16;;;;;;;3.96;1.70;;;;;;;;;;355571;151;865425;-55
2022/05/05 06:03:56;;;;;;;2.45;1.21;;;;;;;;;;355137;151;858706;-56
2022/05/05 06:04:58;;;;;;;4.25;1.52;;;;;;;;;;355366;151;865089;-57
2022/05/05 06:06:00;;;;;;;3.08;1.39;;;;;;;;;;355517;151;857868;-55
2022/05/05 06:07:01;;;;;;;3.05;1.36;;;;;;;;;;355425;151;858934;-54
2022/05/05 06:08:03;;;;;;;4.19;1.36;;;;;;;;;;355543;151;857381;-54
2022/05/05 06:09:05;;;;;;;2.65;1.35;;;;;;;;;;355521;151;865346;-54
2022/05/05 06:10:07;;;;;;;3.27;1.48;;;;;;;;;;355550;151;865472;-54
2022/05/05 06:11:11;;;;;;;2.45;1.58;;;;;;;;;;353442;151;858406;-54
2022/05/05 06:12:12;;;;;;;2.49;1.18;;;;;;;;;;350553;152;858823;-55
2022/05/05 06:13:14;;;;;;;2.03;1.31;;;;;;;;;;350025;153;859581;-55
2022/05/05 06:14:15;;;;;;;1.93;1.26;;;;;;;;;;350339;153;867235;-55
2022/05/05 06:15:17;;;;;;;2.96;1.23;;;;;;;;;;350224;153;857360;-55
2022/05/05 06:16:19;;;;;;;3.17;1.45;;;;;;;;;;350303;153;859047;-55
2022/05/05 06:17:21;;;;;;;3.64;1.40;;;;;;;;;;350232;153;859086;-55
2022/05/05 06:18:22;;;;;;;2.56;1.39;;;;;;;;;;350222;153;860489;-56